createdAt,value
2019-05-03T00:03:12.668Z,72.50
2019-05-03T00:08:15.426Z,72.70
2019-05-03T00:13:17.976Z,73.10
2019-05-03T00:18:22.086Z,72.60
2019-05-03T00:23:23.603Z,72.30
2019-05-03T00:28:26.185Z,71.90
2019-05-03T00:33:29.180Z,72.40
2019-05-03T00:38:32.542Z,72.30
2019-05-03T00:43:34.993Z,71.90
2019-05-03T00:48:37.646Z,71.80
2019-05-03T00:53:42.266Z,71.40
2019-05-03T00:58:49.334Z,71.70
2019-05-03T01:03:52.607Z,71.50
2019-05-03T01:08:54.696Z,71.80
2019-05-03T01:13:57.338Z,71.70
2019-05-03T01:18:59.936Z,71.80
2019-05-03T01:24:02.499Z,71.70
2019-05-03T01:29:05.104Z,72.20
2019-05-03T01:34:07.692Z,73.10
2019-05-03T01:39:10.312Z,73.40
2019-05-03T01:44:12.964Z,73.90
2019-05-03T01:49:22.885Z,74.70
2019-05-03T01:54:24.246Z,75.00
2019-05-03T01:59:26.856Z,75.30
2019-05-03T02:04:37.395Z,75.80
2019-05-03T02:09:41.598Z,75.80
2019-05-03T02:14:42.517Z,77.00
2019-05-03T02:19:45.092Z,76.90
2019-05-03T02:24:49.121Z,76.80
2019-05-03T02:29:52.439Z,76.50
2019-05-03T02:34:54.222Z,77.00
2019-05-03T02:39:56.899Z,77.40
2019-05-03T02:44:59.509Z,77.40
2019-05-03T02:50:06.458Z,77.30
2019-05-03T02:55:09.697Z,77.80
2019-05-03T03:00:15.999Z,77.80
2019-05-03T03:05:16.665Z,77.50
2019-05-03T03:10:18.369Z,77.70
2019-05-03T03:15:21.078Z,77.40
2019-05-03T03:20:25.370Z,78.30
2019-05-03T03:25:26.753Z,78.00
2019-05-03T03:30:48.436Z,78.00
2019-05-03T03:35:48.922Z,78.30
2019-05-03T03:40:49.542Z,78.90
2019-05-03T03:45:52.169Z,78.40
2019-05-03T03:50:56.175Z,78.60
2019-05-03T03:55:57.528Z,78.10
2019-05-03T04:01:06.734Z,78.50
2019-05-03T04:06:09.321Z,78.50
2019-05-03T04:11:11.913Z,79.00
2019-05-03T04:16:26.139Z,78.50
2019-05-03T04:21:28.736Z,78.10
2019-05-03T04:26:31.415Z,78.00
2019-05-03T04:31:36.524Z,78.40
2019-05-03T04:36:36.631Z,78.10
2019-05-03T04:41:39.228Z,78.20
2019-05-03T04:46:41.853Z,78.30
2019-05-03T04:51:46.569Z,78.10
2019-05-03T04:56:47.113Z,77.90
2019-05-03T05:01:49.728Z,78.20
2019-05-03T05:06:52.336Z,79.40
2019-05-03T05:11:55.410Z,78.70
2019-05-03T05:16:57.965Z,79.10
2019-05-03T05:22:05.333Z,79.20
2019-05-03T05:27:18.218Z,79.10
2019-05-03T05:32:20.828Z,79.00
2019-05-03T05:37:25.020Z,79.40
2019-05-03T05:42:26.050Z,79.20
2019-05-03T05:47:37.501Z,78.70
2019-05-03T05:52:40.054Z,79.40
2019-05-03T05:57:48.123Z,79.40
2019-05-03T06:02:50.652Z,79.10
2019-05-03T06:07:59.014Z,78.50
2019-05-03T06:13:06.101Z,78.40
2019-05-03T06:18:14.667Z,78.60
2019-05-03T06:23:24.780Z,78.50
2019-05-03T06:28:31.028Z,77.30
2019-05-03T06:33:34.728Z,78.50
2019-05-03T06:38:36.180Z,78.20
2019-05-03T06:43:39.513Z,78.40
2019-05-03T06:48:42.005Z,77.60
2019-05-03T06:53:47.539Z,78.30
2019-05-03T06:58:47.274Z,77.00
2019-05-03T07:03:56.280Z,76.90
2019-05-03T07:10:05.578Z,76.90
2019-05-03T07:15:08.194Z,76.90
2019-05-03T07:20:10.834Z,77.00
2019-05-03T07:25:14.958Z,77.10
2019-05-03T07:30:16.124Z,76.90
2019-05-03T07:35:18.734Z,76.60
2019-05-03T07:40:21.300Z,76.50
2019-05-03T07:45:25.415Z,73.40
2019-05-03T07:50:26.545Z,73.20
2019-05-03T07:55:35.287Z,72.60
2019-05-03T08:00:48.667Z,72.40
2019-05-03T08:05:51.342Z,71.70
2019-05-03T08:10:55.020Z,70.70
2019-05-03T08:15:56.660Z,69.70
2019-05-03T08:20:59.274Z,69.30
2019-05-03T08:26:01.958Z,68.50
2019-05-03T08:31:15.394Z,67.20
2019-05-03T08:36:18.086Z,67.00
2019-05-03T08:41:20.840Z,66.90
2019-05-03T08:46:25.342Z,66.10
2019-05-03T08:51:26.288Z,65.30
2019-05-03T08:56:28.916Z,64.60
2019-05-03T09:01:31.800Z,63.30
2019-05-03T09:06:35.475Z,62.20
2019-05-03T09:11:37.062Z,61.10
2019-05-03T09:16:40.859Z,60.10
2019-05-03T09:21:45.265Z,59.90
2019-05-03T09:26:46.151Z,58.60
2019-05-03T09:31:48.751Z,59.20
2019-05-03T09:36:51.304Z,59.30
2019-05-03T09:41:55.432Z,63.20
2019-05-03T09:46:56.510Z,64.70
2019-05-03T09:51:59.233Z,65.50
2019-05-03T09:57:01.809Z,64.70
2019-05-03T10:02:04.917Z,64.10
2019-05-03T10:07:07.134Z,64.50
2019-05-03T10:12:12.754Z,63.20
2019-05-03T10:17:21.068Z,63.20
2019-05-03T10:22:25.264Z,63.20
2019-05-03T10:27:28.060Z,62.10
2019-05-03T10:32:35.542Z,61.10
2019-05-03T10:37:37.876Z,60.80
2019-05-03T10:42:40.446Z,58.60
2019-05-03T10:47:45.679Z,58.60
2019-05-03T10:52:52.417Z,57.60
2019-05-03T10:58:00.642Z,55.60
2019-05-03T11:03:05.327Z,55.50
2019-05-03T11:08:06.509Z,55.80
2019-05-03T11:13:09.132Z,57.30
2019-05-03T11:18:11.742Z,55.90
2019-05-03T11:23:14.592Z,52.80
2019-05-03T11:28:25.012Z,54.10
2019-05-03T11:33:31.602Z,53.20
2019-05-03T11:38:37.480Z,52.00
2019-05-03T11:43:40.031Z,50.80
2019-05-03T11:48:42.607Z,51.00
2019-05-03T11:53:45.243Z,50.40
2019-05-03T11:58:47.850Z,49.20
2019-05-03T12:03:52.922Z,47.20
2019-05-03T12:09:00.451Z,45.90
2019-05-03T12:14:08.643Z,45.50
2019-05-03T12:19:16.826Z,45.30
2019-05-03T12:24:15.939Z,44.40
2019-05-03T12:29:16.558Z,43.10
2019-05-03T12:34:19.185Z,43.80
2019-05-03T12:39:26.710Z,42.70
2019-05-03T12:44:24.790Z,44.00
2019-05-03T12:49:27.123Z,43.60
2019-05-03T12:54:29.769Z,42.90
2019-05-03T12:59:38.146Z,41.10
2019-05-03T13:04:40.810Z,39.90
2019-05-03T13:09:45.346Z,39.20
2019-05-03T13:14:46.030Z,40.70
2019-05-03T13:19:48.550Z,40.60
2019-05-03T13:24:51.168Z,41.40
2019-05-03T13:29:55.589Z,42.30
2019-05-03T13:34:56.440Z,43.00
2019-05-03T13:39:59.121Z,43.90
2019-05-03T13:45:01.914Z,42.90
2019-05-03T13:50:05.168Z,43.30
2019-05-03T13:55:07.883Z,43.50
2019-05-03T14:00:10.660Z,43.70
2019-05-03T14:05:15.364Z,44.60
2019-05-03T14:10:16.531Z,45.60
2019-05-03T14:15:19.333Z,44.80
2019-05-03T14:20:28.576Z,45.00
2019-05-03T14:25:31.274Z,45.10
2019-05-03T14:30:34.661Z,45.50
2019-05-03T14:35:36.546Z,45.10
2019-05-03T14:40:39.218Z,45.40
2019-05-03T14:45:42.124Z,46.00
2019-05-03T14:50:45.621Z,46.20
2019-05-03T14:55:51.642Z,45.70
2019-05-03T15:01:02.147Z,46.10
2019-05-03T15:06:05.280Z,46.50
2019-05-03T15:11:07.537Z,45.40
2019-05-03T15:16:10.145Z,45.50
2019-05-03T15:21:14.595Z,46.50
2019-05-03T15:26:16.724Z,46.40
2019-05-03T15:31:19.386Z,46.10
2019-05-03T15:36:22.040Z,45.90
2019-05-03T15:41:25.175Z,46.30
2019-05-03T15:46:31.853Z,46.40
2019-05-03T15:51:34.516Z,46.10
2019-05-03T15:56:37.022Z,46.90
2019-05-03T16:01:39.754Z,46.10
2019-05-03T16:06:44.812Z,45.50
2019-05-03T16:11:45.856Z,45.60
2019-05-03T16:16:48.460Z,45.90
2019-05-03T16:21:51.048Z,46.00
2019-05-03T16:26:59.190Z,46.40
2019-05-03T16:32:01.806Z,48.80
2019-05-03T16:37:04.524Z,49.70
2019-05-03T16:42:07.093Z,50.10
2019-05-03T16:47:09.836Z,47.70
2019-05-03T16:52:12.431Z,47.20
2019-05-03T16:57:17.468Z,47.00
2019-05-03T17:02:17.730Z,46.40
2019-05-03T17:07:26.059Z,46.40
2019-05-03T17:12:29.779Z,46.10
2019-05-03T17:17:34.399Z,46.70
2019-05-03T17:22:35.058Z,46.60
2019-05-03T17:27:37.704Z,46.90
2019-05-03T17:32:40.255Z,46.20
2019-05-03T17:37:49.161Z,45.80
2019-05-03T17:43:00.882Z,46.00
2019-05-03T17:48:04.475Z,46.30
2019-05-03T17:53:17.828Z,46.60
2019-05-03T17:58:28.935Z,47.20
2019-05-03T18:03:33.560Z,47.00
2019-05-03T18:08:55.918Z,48.30
2019-05-03T18:13:58.571Z,48.90
2019-05-03T18:19:01.172Z,50.10
2019-05-03T18:24:04.935Z,49.40
2019-05-03T18:29:06.534Z,49.10
2019-05-03T18:34:19.180Z,49.30
2019-05-03T18:39:12.024Z,49.40
2019-05-03T18:44:21.895Z,50.10
2019-05-03T18:49:24.901Z,49.70
2019-05-03T18:54:27.415Z,50.20
2019-05-03T18:59:30.004Z,49.90
2019-05-03T19:04:38.387Z,50.00
2019-05-03T19:09:49.477Z,49.90
2019-05-03T19:14:52.316Z,50.10
2019-05-03T19:19:55.259Z,50.30
2019-05-03T19:24:57.802Z,50.40
2019-05-03T19:30:00.637Z,50.90
2019-05-03T19:35:05.008Z,51.00
2019-05-03T19:40:06.612Z,50.70
2019-05-03T19:45:09.141Z,50.90
2019-05-03T19:50:12.006Z,51.70
2019-05-03T19:55:15.440Z,51.80
2019-05-03T20:00:17.770Z,51.90
2019-05-03T20:05:28.000Z,52.30
2019-05-03T20:10:30.674Z,51.80
2019-05-03T20:15:33.355Z,51.60
2019-05-03T20:20:35.936Z,51.90
2019-05-03T20:25:38.669Z,51.60
2019-05-03T20:30:41.388Z,50.90
2019-05-03T20:35:45.154Z,51.30
2019-05-03T20:40:46.727Z,51.60
2019-05-03T20:46:00.241Z,52.00
2019-05-03T20:51:02.922Z,51.80
2019-05-03T20:56:05.511Z,50.90
2019-05-03T21:01:08.205Z,51.00
2019-05-03T21:06:10.831Z,51.30
2019-05-03T21:11:14.822Z,51.70
2019-05-03T21:16:23.472Z,51.70
2019-05-03T21:21:36.958Z,51.90
2019-05-03T21:26:39.516Z,51.90
2019-05-03T21:31:42.006Z,52.30
2019-05-03T21:36:45.311Z,52.60
2019-05-03T21:41:47.285Z,52.90
2019-05-03T21:46:49.936Z,53.00
2019-05-03T21:51:53.676Z,53.40
2019-05-03T21:56:57.931Z,53.80
2019-05-03T22:01:57.863Z,53.90
2019-05-03T22:07:00.607Z,54.40
2019-05-03T22:12:05.102Z,54.80
2019-05-03T22:17:16.423Z,53.90
2019-05-03T22:22:25.541Z,53.70
2019-05-03T22:27:31.505Z,54.60
2019-05-03T22:32:35.458Z,55.20
2019-05-03T22:37:36.714Z,55.60
2019-05-03T22:42:39.337Z,56.10
2019-05-03T22:47:41.989Z,56.10
2019-05-03T22:52:45.531Z,56.40
2019-05-03T22:57:47.161Z,56.50
2019-05-03T23:02:49.710Z,56.80
2019-05-03T23:07:52.357Z,57.00
2019-05-03T23:12:55.074Z,58.10
2019-05-03T23:17:57.713Z,58.30
2019-05-03T23:23:00.338Z,58.10
2019-05-03T23:28:02.831Z,58.60
2019-05-03T23:33:05.418Z,59.00
2019-05-03T23:38:07.971Z,58.70
2019-05-03T23:43:10.576Z,58.60
2019-05-03T23:48:14.938Z,58.60
2019-05-03T23:53:15.757Z,60.90
2019-05-03T23:58:18.346Z,62.90
